Time;durP1;ratioP1;P1;durP2;ratioP2;P2;SDS_P1;SDS_P2;PMS_P1;PMS_P2;Temp;Humidity;BMP_temperature;BMP_pressure;BME280_temperature;BME280_humidity;BME280_pressure;Samples;Min_cycle;Max_cycle;Signal;HPM_P1;HPM_P2
2023/10/29 00:00:11;;;;;;;27.77;15.60;;;;;;;8.78;100.00;99861.38;4986095;28;20269;-42
2023/10/29 00:02:37;;;;;;;25.83;14.88;;;;;;;8.78;100.00;99864.91;4987614;28;20196;-44
2023/10/29 00:05:03;;;;;;;23.77;14.32;;;;;;;8.79;100.00;99863.09;4982947;28;20209;-43
2023/10/29 00:07:28;;;;;;;25.30;14.10;;;;;;;8.75;100.00;99851.72;4985321;28;20194;-44
2023/10/29 00:09:54;;;;;;;24.92;14.95;;;;;;;8.77;100.00;99849.00;4989140;28;20220;-44
2023/10/29 00:12:20;;;;;;;24.08;14.32;;;;;;;8.76;100.00;99857.91;4980434;28;20241;-43
2023/10/29 00:14:46;;;;;;;24.02;13.98;;;;;;;8.80;100.00;99855.03;4980291;28;20189;-42
2023/10/29 00:17:12;;;;;;;19.50;13.70;;;;;;;8.74;100.00;99843.78;4987020;28;20680;-45
2023/10/29 00:19:38;;;;;;;22.98;14.15;;;;;;;8.75;100.00;99832.16;4974795;28;20397;-44
2023/10/29 00:22:04;;;;;;;19.95;14.48;;;;;;;8.72;100.00;99819.78;4981931;28;20577;-43
2023/10/29 00:24:29;;;;;;;24.65;12.68;;;;;;;8.81;100.00;99819.38;4979380;28;20181;-45
2023/10/29 00:26:55;;;;;;;23.08;13.73;;;;;;;8.73;100.00;99816.19;4982126;28;20205;-45
2023/10/29 00:29:20;;;;;;;20.30;13.18;;;;;;;8.73;100.00;99815.34;4985108;28;20201;-44
2023/10/29 00:31:45;;;;;;;21.08;12.77;;;;;;;8.74;100.00;99793.88;4986253;28;20202;-43
2023/10/29 00:34:11;;;;;;;19.42;13.18;;;;;;;8.72;100.00;99792.22;4982383;28;20353;-43
2023/10/29 00:36:37;;;;;;;23.50;13.60;;;;;;;8.71;100.00;99804.72;4982802;28;20205;-44
2023/10/29 00:39:03;;;;;;;23.25;13.10;;;;;;;8.71;100.00;99794.03;4988211;28;20553;-43
2023/10/29 00:41:29;;;;;;;24.58;12.80;;;;;;;8.72;100.00;99797.56;4981185;28;20260;-44
2023/10/29 00:43:54;;;;;;;18.20;13.05;;;;;;;8.75;100.00;99797.44;4984333;28;20642;-43
2023/10/29 00:46:20;;;;;;;21.42;14.13;;;;;;;8.77;100.00;99799.09;4986065;28;20201;-43
2023/10/29 00:48:46;;;;;;;22.05;13.80;;;;;;;8.76;100.00;99802.69;4985416;28;20320;-43
2023/10/29 00:51:12;;;;;;;22.70;13.80;;;;;;;8.75;100.00;99797.44;4971558;28;20228;-44
2023/10/29 00:53:39;;;;;;;19.20;13.10;;;;;;;8.78;100.00;99800.81;4986164;28;20562;-44
2023/10/29 00:56:05;;;;;;;20.30;13.10;;;;;;;8.81;100.00;99789.13;4981131;28;20288;-42
2023/10/29 00:58:31;;;;;;;19.90;13.57;;;;;;;8.77;100.00;99774.22;4963835;28;20178;-43
2023/10/29 01:00:57;;;;;;;17.92;13.52;;;;;;;8.76;100.00;99784.00;4983291;28;20182;-43
2023/10/29 01:03:22;;;;;;;18.65;12.73;;;;;;;8.77;100.00;99766.19;4985654;28;20177;-44
2023/10/29 01:05:48;;;;;;;22.83;13.38;;;;;;;8.79;100.00;99762.50;4968044;28;20197;-43
2023/10/29 01:08:15;;;;;;;17.80;13.60;;;;;;;8.89;100.00;99748.69;4986672;28;20643;-43
2023/10/29 01:10:41;;;;;;;20.15;13.45;;;;;;;8.82;100.00;99756.16;4945159;28;20192;-43
2023/10/29 01:13:06;;;;;;;21.17;12.35;;;;;;;8.85;100.00;99743.53;4988783;28;20173;-45
2023/10/29 01:15:33;;;;;;;18.27;13.05;;;;;;;8.83;100.00;99742.72;4987778;28;20288;-43
2023/10/29 01:17:58;;;;;;;22.50;13.25;;;;;;;8.84;100.00;99735.56;4987045;28;20220;-43
2023/10/29 01:20:24;;;;;;;20.45;14.23;;;;;;;8.82;100.00;99732.97;4981430;28;20857;-43
2023/10/29 01:22:50;;;;;;;20.55;13.55;;;;;;;8.82;100.00;99719.63;4981030;28;20217;-45
2023/10/29 01:25:15;;;;;;;19.77;13.95;;;;;;;8.90;100.00;99710.34;4985604;28;20232;-45
2023/10/29 01:27:41;;;;;;;26.15;13.25;;;;;;;8.80;100.00;99684.09;4985053;28;20546;-44
2023/10/29 01:30:07;;;;;;;22.80;13.63;;;;;;;8.86;100.00;99682.94;4983423;28;20170;-43
2023/10/29 01:32:33;;;;;;;17.58;12.68;;;;;;;8.84;100.00;99674.16;4971457;28;20699;-44
2023/10/29 01:34:58;;;;;;;20.33;12.93;;;;;;;8.91;100.00;99677.38;4966884;28;20182;-43
2023/10/29 01:37:24;;;;;;;18.95;13.60;;;;;;;8.93;100.00;99694.19;4965983;28;20173;-41
2023/10/29 01:39:49;;;;;;;23.30;13.20;;;;;;;8.83;100.00;99700.00;4985609;28;20549;-42
2023/10/29 01:42:15;;;;;;;22.05;13.18;;;;;;;8.83;100.00;99705.34;4981599;28;20173;-43
2023/10/29 01:44:41;;;;;;;19.63;13.43;;;;;;;8.91;100.00;99688.06;4970890;28;20722;-42
2023/10/29 01:47:06;;;;;;;18.65;12.98;;;;;;;8.87;100.00;99692.69;4983916;28;20209;-42
2023/10/29 01:49:33;;;;;;;22.42;14.07;;;;;;;8.87;100.00;99684.66;4969147;28;20426;-41
2023/10/29 01:52:00;;;;;;;24.17;13.65;;;;;;;8.85;100.00;99694.56;4986370;28;20216;-43
2023/10/29 01:54:25;;;;;;;18.95;13.38;;;;;;;8.83;100.00;99691.97;4965261;28;20196;-43
2023/10/29 01:56:51;;;;;;;23.48;13.75;;;;;;;8.83;100.00;99700.00;4970308;28;20766;-44
2023/10/29 01:59:16;;;;;;;19.52;13.27;;;;;;;8.85;100.00;99698.13;4969819;28;20193;-41
2023/10/29 02:01:42;;;;;;;21.30;14.32;;;;;;;8.84;100.00;99692.84;4970161;28;20167;-42
2023/10/29 02:04:09;;;;;;;20.40;12.93;;;;;;;8.82;100.00;99684.91;4985756;28;20177;-42
2023/10/29 02:06:39;;;;;;;18.45;11.70;;;;;;;8.87;100.00;99684.66;4968714;28;20205;-42
2023/10/29 02:09:05;;;;;;;16.85;11.95;;;;;;;8.89;100.00;99656.06;4971554;28;20185;-43
2023/10/29 02:11:31;;;;;;;13.52;11.52;;;;;;;8.85;100.00;99667.84;4984853;28;20228;-44
2023/10/29 02:13:56;;;;;;;17.00;11.95;;;;;;;8.84;100.00;99658.13;4978318;28;20217;-42
2023/10/29 02:16:23;;;;;;;15.55;12.35;;;;;;;8.84;100.00;99652.78;4964144;28;20195;-42
2023/10/29 02:18:49;;;;;;;17.30;12.00;;;;;;;8.83;100.00;99651.03;4984246;28;20584;-41
2023/10/29 02:21:15;;;;;;;17.83;12.07;;;;;;;8.83;100.00;99645.69;4986595;28;20173;-42
2023/10/29 02:23:40;;;;;;;17.30;13.15;;;;;;;8.81;100.00;99631.53;4982462;28;20268;-43
2023/10/29 02:26:06;;;;;;;17.42;12.15;;;;;;;8.83;100.00;99635.00;4983364;28;20261;-44
2023/10/29 02:28:32;;;;;;;14.00;11.05;;;;;;;8.83;100.00;99630.56;4969773;28;20184;-43
2023/10/29 02:30:57;;;;;;;15.20;12.60;;;;;;;8.78;100.00;99621.88;4968243;28;20695;-43
2023/10/29 02:33:23;;;;;;;14.85;11.10;;;;;;;8.78;100.00;99627.22;4984607;28;20272;-44
2023/10/29 02:35:49;;;;;;;16.83;11.00;;;;;;;8.78;100.00;99637.91;4971127;28;20254;-43
2023/10/29 02:38:16;;;;;;;13.73;11.55;;;;;;;8.77;100.00;99627.31;4980720;28;20173;-44
2023/10/29 02:40:42;;;;;;;13.88;11.50;;;;;;;8.83;100.00;99627.88;4981515;28;20186;-42
2023/10/29 02:43:10;;;;;;;14.52;11.13;;;;;;;8.80;100.00;99635.16;4969232;28;20233;-43
2023/10/29 02:45:36;;;;;;;12.50;10.40;;;;;;;8.86;100.00;99629.53;4981635;28;20194;-43
2023/10/29 02:48:02;;;;;;;16.00;11.43;;;;;;;8.82;100.00;99618.13;4982384;28;20249;-46
2023/10/29 02:50:27;;;;;;;16.17;11.18;;;;;;;8.84;100.00;99615.38;4987638;28;20189;-43
2023/10/29 02:52:54;;;;;;;14.88;10.75;;;;;;;8.83;100.00;99611.84;4985225;28;20272;-43
2023/10/29 02:55:20;;;;;;;14.55;11.52;;;;;;;8.83;100.00;99611.84;4987740;28;20201;-44
2023/10/29 02:57:45;;;;;;;14.98;11.15;;;;;;;8.82;100.00;99599.44;4972732;28;20557;-43
2023/10/29 03:00:12;;;;;;;11.73;10.50;;;;;;;8.82;100.00;99595.91;4981741;28;20196;-43
2023/10/29 03:02:38;;;;;;;14.25;10.00;;;;;;;8.82;100.00;99588.75;4986930;28;20181;-44
2023/10/29 03:05:04;;;;;;;14.70;11.27;;;;;;;8.85;100.00;99582.38;4985016;28;20198;-43
2023/10/29 03:07:30;;;;;;;16.50;11.05;;;;;;;8.82;100.00;99574.53;4989638;28;20212;-43
2023/10/29 03:09:56;;;;;;;15.57;11.65;;;;;;;8.86;100.00;99576.97;4981710;28;20209;-45
2023/10/29 03:12:22;;;;;;;12.73;9.43;;;;;;;8.89;100.00;99573.25;4950980;28;20271;-43
2023/10/29 03:14:47;;;;;;;15.25;10.45;;;;;;;8.81;100.00;99564.78;4984642;28;20178;-43
2023/10/29 03:17:13;;;;;;;16.17;10.23;;;;;;;8.82;100.00;99555.84;4984352;28;20177;-42
2023/10/29 03:19:38;;;;;;;14.60;9.55;;;;;;;8.85;100.00;99567.25;4983427;28;20189;-42
2023/10/29 03:22:04;;;;;;;14.07;10.25;;;;;;;8.83;100.00;99565.56;4984031;28;20554;-42
2023/10/29 03:24:30;;;;;;;13.85;9.68;;;;;;;8.80;100.00;99565.72;4986189;28;20666;-42
2023/10/29 03:26:55;;;;;;;19.73;10.45;;;;;;;8.83;100.00;99558.44;4984491;28;20754;-43
2023/10/29 03:29:21;;;;;;;13.02;10.43;;;;;;;8.82;100.00;99553.16;4968349;28;20185;-43
2023/10/29 03:31:47;;;;;;;14.38;10.70;;;;;;;8.84;100.00;99543.28;4973068;28;20457;-43
2023/10/29 03:34:13;;;;;;;17.55;10.43;;;;;;;8.82;100.00;99532.66;4985091;28;20182;-44
2023/10/29 03:36:39;;;;;;;11.30;9.68;;;;;;;8.82;100.00;99529.13;4980565;28;20228;-44
2023/10/29 03:39:05;;;;;;;12.80;10.02;;;;;;;8.81;100.00;99512.25;4973039;28;20181;-42
2023/10/29 03:41:31;;;;;;;12.35;9.60;;;;;;;8.82;100.00;99510.44;4983048;28;20186;-44
2023/10/29 03:43:57;;;;;;;10.10;8.52;;;;;;;8.85;100.00;99510.25;4973188;28;20187;-44
2023/10/29 03:46:23;;;;;;;14.20;9.88;;;;;;;8.80;100.00;99494.47;4980915;28;20693;-44
2023/10/29 03:48:49;;;;;;;14.82;9.25;;;;;;;8.82;100.00;99492.59;4987510;28;20316;-46
2023/10/29 03:51:15;;;;;;;13.30;9.13;;;;;;;8.80;100.00;99478.47;4971321;28;20293;-42
2023/10/29 03:53:40;;;;;;;10.90;9.15;;;;;;;8.89;100.00;99468.25;4972083;28;20558;-44
2023/10/29 03:56:06;;;;;;;13.13;9.63;;;;;;;8.77;100.00;99469.78;4972181;28;20209;-43
2023/10/29 03:58:32;;;;;;;12.77;8.63;;;;;;;8.79;100.00;99467.84;4988209;28;20196;-43
2023/10/29 04:00:58;;;;;;;12.00;9.48;;;;;;;8.79;100.00;99450.03;4982170;28;20174;-43
2023/10/29 04:03:23;;;;;;;12.95;8.40;;;;;;;8.77;100.00;99445.72;4982346;28;20182;-43
2023/10/29 04:05:49;;;;;;;12.05;8.85;;;;;;;8.78;100.00;99458.13;4983376;28;20801;-44
2023/10/29 04:08:16;;;;;;;9.73;8.02;;;;;;;8.79;100.00;99443.81;4971106;28;20185;-43
2023/10/29 04:10:42;;;;;;;13.50;8.00;;;;;;;8.77;100.00;99440.41;4982112;28;20579;-44
2023/10/29 04:13:08;;;;;;;9.15;8.15;;;;;;;8.78;100.00;99434.94;4986380;28;20193;-44
2023/10/29 04:15:33;;;;;;;12.05;8.30;;;;;;;8.78;100.00;99426.94;4983458;28;20205;-44
2023/10/29 04:17:59;;;;;;;11.30;8.18;;;;;;;8.79;100.00;99422.44;4977081;28;20185;-44
2023/10/29 04:20:24;;;;;;;11.45;8.32;;;;;;;8.79;100.00;99419.78;4985379;28;20239;-44
2023/10/29 04:22:50;;;;;;;10.68;8.27;;;;;;;8.80;100.00;99413.50;4983438;28;20636;-42
2023/10/29 04:25:15;;;;;;;11.10;8.90;;;;;;;8.75;100.00;99403.09;4981786;28;20207;-42
2023/10/29 04:27:41;;;;;;;9.80;8.00;;;;;;;8.80;100.00;99405.50;4978781;28;20648;-44
2023/10/29 04:30:07;;;;;;;11.68;8.00;;;;;;;8.74;100.00;99390.66;4980760;28;20185;-44
2023/10/29 04:32:32;;;;;;;10.20;7.57;;;;;;;8.77;100.00;99392.31;4986081;28;20311;-45
2023/10/29 04:34:58;;;;;;;11.52;8.68;;;;;;;8.73;100.00;99388.94;4982496;28;20192;-43
2023/10/29 04:37:23;;;;;;;10.48;8.35;;;;;;;8.71;100.00;99366.81;4982880;28;20191;-45
2023/10/29 04:39:50;;;;;;;12.00;7.93;;;;;;;8.78;100.00;99364.66;4982414;28;20178;-45
2023/10/29 04:42:16;;;;;;;8.82;7.40;;;;;;;8.73;100.00;99351.56;4986474;28;20634;-46
2023/10/29 04:44:42;;;;;;;8.43;7.53;;;;;;;8.79;100.00;99351.22;4984357;28;20182;-44
2023/10/29 04:47:08;;;;;;;10.73;7.53;;;;;;;8.74;100.00;99345.25;4986449;28;20691;-45
2023/10/29 04:49:33;;;;;;;7.53;6.68;;;;;;;8.75;100.00;99327.47;4983349;28;20224;-44
2023/10/29 04:51:59;;;;;;;9.75;7.32;;;;;;;8.76;100.00;99323.81;4984019;28;20264;-43
2023/10/29 04:54:24;;;;;;;9.18;6.53;;;;;;;8.83;100.00;99320.75;4981999;28;20209;-44
2023/10/29 04:56:50;;;;;;;8.13;6.95;;;;;;;8.81;100.00;99317.28;4971972;28;20213;-45
2023/10/29 04:59:16;;;;;;;9.23;6.72;;;;;;;8.79;100.00;99311.19;4970422;28;20174;-43
2023/10/29 05:01:41;;;;;;;8.65;6.53;;;;;;;8.81;100.00;99313.75;4981153;28;20272;-41
2023/10/29 05:04:07;;;;;;;8.77;7.00;;;;;;;8.82;100.00;99302.97;4983883;28;20255;-43
2023/10/29 05:06:32;;;;;;;8.40;5.72;;;;;;;8.81;100.00;99305.72;4984817;28;20292;-43
2023/10/29 05:08:58;;;;;;;7.95;5.60;;;;;;;8.83;100.00;99307.41;4983160;28;20219;-43
2023/10/29 05:11:23;;;;;;;11.40;5.85;;;;;;;8.79;100.00;99303.16;4979732;28;20582;-44
2023/10/29 05:13:49;;;;;;;8.75;5.65;;;;;;;8.80;100.00;99298.69;4968776;28;20681;-42
2023/10/29 05:16:15;;;;;;;7.30;4.93;;;;;;;8.79;100.00;99302.28;4981770;28;20208;-44
2023/10/29 05:18:40;;;;;;;8.55;5.05;;;;;;;8.80;100.00;99299.53;4980839;28;20261;-43
2023/10/29 05:21:07;;;;;;;7.40;5.43;;;;;;;8.80;100.00;99293.34;4983029;28;20204;-45
2023/10/29 05:23:34;;;;;;;5.53;4.70;;;;;;;8.76;100.00;99275.75;4980776;28;20194;-44
2023/10/29 05:25:59;;;;;;;6.03;3.70;;;;;;;8.82;100.00;99286.09;4983079;28;20233;-43
2023/10/29 05:28:26;;;;;;;4.80;3.95;;;;;;;8.81;100.00;99289.72;4981174;28;20178;-44
2023/10/29 05:30:52;;;;;;;4.55;3.47;;;;;;;8.79;100.00;99296.94;4978576;28;20185;-42
2023/10/29 05:33:18;;;;;;;4.75;3.33;;;;;;;8.79;100.00;99270.22;4977998;28;20664;-44
2023/10/29 05:35:43;;;;;;;3.47;2.90;;;;;;;8.86;100.00;99266.28;4980486;28;20236;-44
2023/10/29 05:38:09;;;;;;;3.03;2.78;;;;;;;8.82;100.00;99270.94;4980464;28;20558;-45
2023/10/29 05:40:34;;;;;;;2.80;2.60;;;;;;;8.80;100.00;99275.50;4983358;28;20199;-47
2023/10/29 05:43:00;;;;;;;2.78;2.45;;;;;;;8.81;100.00;99257.66;4982750;28;20620;-45
2023/10/29 05:45:27;;;;;;;5.15;2.60;;;;;;;8.83;100.00;99255.78;4982616;28;20201;-44
2023/10/29 05:47:52;;;;;;;3.60;2.78;;;;;;;8.82;100.00;99251.38;4984040;28;20205;-44
2023/10/29 05:50:18;;;;;;;2.35;2.15;;;;;;;8.83;100.00;99253.97;4985212;28;20240;-44
2023/10/29 05:52:45;;;;;;;2.42;2.22;;;;;;;8.85;100.00;99253.88;4978784;28;20684;-42
2023/10/29 05:55:11;;;;;;;3.70;2.30;;;;;;;8.85;100.00;99260.09;4985721;28;20205;-44
2023/10/29 05:57:36;;;;;;;1.90;1.80;;;;;;;8.87;100.00;99246.63;4979447;28;20656;-46
2023/10/29 06:00:04;;;;;;;2.10;1.90;;;;;;;8.89;100.00;99238.56;4980830;28;20672;-44
2023/10/29 06:02:38;;;;;;;3.13;2.10;;;;;;;8.90;100.00;99238.47;4978651;28;20514;-44
2023/10/29 06:05:05;;;;;;;3.53;1.83;;;;;;;8.90;100.00;99229.56;4980028;28;20610;-44
2023/10/29 06:07:30;;;;;;;2.38;1.90;;;;;;;8.90;100.00;99246.47;4982838;28;20272;-44
2023/10/29 06:09:56;;;;;;;4.10;2.45;;;;;;;8.93;100.00;99240.94;4985201;28;20715;-47
2023/10/29 06:12:22;;;;;;;1.92;1.70;;;;;;;8.93;100.00;99240.94;4986875;28;20251;-45
2023/10/29 06:14:48;;;;;;;1.88;1.73;;;;;;;8.96;100.00;99238.09;4981563;28;20186;-44
2023/10/29 06:17:13;;;;;;;2.00;1.90;;;;;;;8.97;100.00;99221.13;4982848;28;20178;-44
2023/10/29 06:19:39;;;;;;;3.03;2.13;;;;;;;9.00;100.00;99223.63;4982459;28;20189;-45
2023/10/29 06:22:08;;;;;;;2.40;1.83;;;;;;;9.00;100.00;99220.94;4975484;28;20177;-45
2023/10/29 06:24:34;;;;;;;1.63;1.52;;;;;;;9.01;100.00;99224.50;4968861;28;20189;-44
2023/10/29 06:26:59;;;;;;;2.30;1.60;;;;;;;9.02;100.00;99232.41;4983772;28;20580;-43
2023/10/29 06:29:25;;;;;;;1.92;1.83;;;;;;;9.02;100.00;99211.03;4983868;28;20558;-43
2023/10/29 06:31:50;;;;;;;2.67;1.95;;;;;;;9.07;100.00;99208.09;4989590;28;20213;-41
2023/10/29 06:34:16;;;;;;;1.50;1.40;;;;;;;9.03;100.00;99209.22;4987640;28;20181;-43
2023/10/29 06:36:41;;;;;;;1.80;1.70;;;;;;;9.06;100.00;99220.59;4989303;28;20710;-41
2023/10/29 06:39:07;;;;;;;2.30;1.88;;;;;;;9.08;100.00;99205.34;4987256;28;20296;-43
2023/10/29 06:41:33;;;;;;;4.55;1.83;;;;;;;9.08;100.00;99194.66;4989326;28;20252;-45
2023/10/29 06:43:59;;;;;;;3.55;1.73;;;;;;;9.12;100.00;99191.78;4985873;28;20272;-44
2023/10/29 06:46:24;;;;;;;1.90;1.80;;;;;;;9.14;100.00;99208.59;4989036;28;20660;-43
2023/10/29 06:48:50;;;;;;;1.98;1.88;;;;;;;9.17;100.00;99184.38;4987397;28;20768;-44
2023/10/29 06:51:15;;;;;;;1.92;1.60;;;;;;;9.17;100.00;99171.03;4980176;28;20271;-46
2023/10/29 06:53:41;;;;;;;1.80;1.70;;;;;;;9.20;100.00;99190.38;4985655;28;20562;-45
2023/10/29 06:56:07;;;;;;;3.20;2.05;;;;;;;9.22;100.00;99191.16;4987418;28;20555;-43
2023/10/29 06:58:33;;;;;;;2.00;1.90;;;;;;;9.25;100.00;99201.69;4986913;28;20604;-43
2023/10/29 07:01:06;;;;;;;3.88;2.45;;;;;;;9.34;100.00;99199.44;4984650;28;20194;-42
2023/10/29 07:03:32;;;;;;;2.80;2.47;;;;;;;9.32;100.00;99199.50;4970152;28;20286;-44
2023/10/29 07:06:09;;;;;;;8.15;2.63;;;;;;;9.38;100.00;99201.84;4985174;28;20205;-45
2023/10/29 07:08:35;;;;;;;3.25;2.47;;;;;;;9.41;100.00;99187.41;4980990;28;20197;-44
2023/10/29 07:11:02;;;;;;;4.38;2.33;;;;;;;9.41;100.00;99188.28;4985753;28;20243;-44
2023/10/29 07:13:29;;;;;;;5.18;2.65;;;;;;;9.45;100.00;99194.31;4986591;28;20193;-46
2023/10/29 07:15:55;;;;;;;2.92;2.33;;;;;;;9.46;100.00;99186.16;4984634;28;20217;-47
2023/10/29 07:18:22;;;;;;;4.57;2.88;;;;;;;9.52;100.00;99181.44;4976734;28;20186;-43
2023/10/29 07:20:53;;;;;;;3.92;2.80;;;;;;;9.56;100.00;99177.63;4981404;28;20830;-44
2023/10/29 07:23:20;;;;;;;3.75;2.47;;;;;;;9.57;100.00;99182.84;4981534;28;20177;-44
2023/10/29 07:25:47;;;;;;;3.58;2.83;;;;;;;9.61;100.00;99179.03;4982367;28;20197;-43
2023/10/29 07:28:16;;;;;;;5.95;3.20;;;;;;;9.60;100.00;99182.69;4981574;28;20216;-44
2023/10/29 07:30:42;;;;;;;5.78;3.05;;;;;;;9.64;100.00;99183.34;4979341;28;20190;-44
2023/10/29 07:33:10;;;;;;;4.80;2.80;;;;;;;9.66;100.00;99182.31;4980702;28;20707;-44
2023/10/29 07:35:36;;;;;;;3.35;3.05;;;;;;;9.66;100.00;99178.75;4984825;28;20216;-45
2023/10/29 07:38:02;;;;;;;3.97;2.60;;;;;;;9.72;100.00;99180.22;4972174;28;20181;-45
2023/10/29 07:40:27;;;;;;;6.50;2.65;;;;;;;9.75;100.00;99196.94;4980702;28;20185;-45
2023/10/29 07:42:53;;;;;;;5.75;2.70;;;;;;;9.78;100.00;99186.03;4967654;28;20189;-45
2023/10/29 07:45:18;;;;;;;7.15;2.95;;;;;;;9.80;100.00;99189.50;4980622;28;20628;-45
2023/10/29 07:47:44;;;;;;;2.80;2.47;;;;;;;9.85;100.00;99184.69;4981705;28;20206;-45
2023/10/29 07:50:12;;;;;;;3.40;2.15;;;;;;;9.87;100.00;99198.84;4981376;28;20592;-44
2023/10/29 07:52:39;;;;;;;8.52;3.60;;;;;;;9.95;100.00;99201.06;4964333;28;20715;-43
2023/10/29 07:55:09;;;;;;;4.30;2.25;;;;;;;9.96;100.00;99205.44;4984760;28;20265;-46
2023/10/29 07:57:36;;;;;;;4.90;2.35;;;;;;;9.98;100.00;99213.38;4980653;28;20189;-48
2023/10/29 08:00:04;;;;;;;3.38;2.25;;;;;;;10.03;100.00;99205.91;4982339;28;20205;-46
2023/10/29 08:02:37;;;;;;;2.72;2.33;;;;;;;10.04;100.00;99194.28;4986393;28;20593;-45
2023/10/29 08:05:03;;;;;;;2.17;1.90;;;;;;;10.04;100.00;99181.75;4988525;28;20300;-45
2023/10/29 08:07:29;;;;;;;4.75;2.08;;;;;;;10.04;100.00;99197.81;4978773;28;20675;-44
2023/10/29 08:09:56;;;;;;;6.43;2.30;;;;;;;10.07;100.00;99192.25;4986430;28;20192;-45
2023/10/29 08:12:22;;;;;;;5.00;2.35;;;;;;;10.10;100.00;99202.78;4986987;28;20710;-44
2023/10/29 08:14:48;;;;;;;4.82;2.15;;;;;;;10.17;100.00;99200.59;4965845;28;20281;-46
2023/10/29 08:17:17;;;;;;;4.47;2.00;;;;;;;10.19;100.00;99190.66;4981102;28;20331;-45
2023/10/29 08:19:43;;;;;;;3.83;2.03;;;;;;;10.27;100.00;99184.78;4983453;28;20722;-45
2023/10/29 08:22:09;;;;;;;5.07;1.73;;;;;;;10.29;100.00;99191.78;4982855;28;20213;-43
2023/10/29 08:24:35;;;;;;;3.80;1.88;;;;;;;10.36;100.00;99191.41;4982478;28;20264;-46
2023/10/29 08:27:00;;;;;;;4.97;2.00;;;;;;;10.44;100.00;99194.47;4981421;28;20624;-45
2023/10/29 08:29:26;;;;;;;5.10;2.00;;;;;;;10.53;100.00;99191.19;4982548;28;20277;-46
2023/10/29 08:31:51;;;;;;;5.13;1.80;;;;;;;10.62;100.00;99187.06;4964413;28;20213;-45
2023/10/29 08:34:17;;;;;;;6.85;2.00;;;;;;;10.71;100.00;99171.28;4985516;28;20182;-46
2023/10/29 08:36:42;;;;;;;5.50;1.80;;;;;;;11.07;100.00;99169.78;4985170;28;20213;-47
2023/10/29 08:39:09;;;;;;;3.42;1.77;;;;;;;11.07;100.00;99177.81;4985744;28;20264;-44
2023/10/29 08:41:35;;;;;;;2.10;1.60;;;;;;;11.23;100.00;99174.09;4988076;28;20193;-46
2023/10/29 08:44:01;;;;;;;1.88;1.60;;;;;;;11.37;100.00;99168.69;4972758;28;20199;-46
2023/10/29 08:46:26;;;;;;;2.67;1.50;;;;;;;11.42;100.00;99158.50;4979697;28;20292;-46
2023/10/29 08:48:52;;;;;;;4.60;1.95;;;;;;;11.58;100.00;99155.59;4986500;28;20248;-44
2023/10/29 08:51:17;;;;;;;2.90;1.60;;;;;;;11.74;100.00;99150.03;4988069;28;20288;-45
2023/10/29 08:53:43;;;;;;;4.45;1.52;;;;;;;11.55;100.00;99162.03;4988279;28;20660;-44
2023/10/29 08:56:08;;;;;;;3.13;1.50;;;;;;;11.41;100.00;99163.94;4986000;28;20200;-44
2023/10/29 08:58:34;;;;;;;3.97;1.52;;;;;;;11.44;100.00;99150.34;4984105;28;20699;-44
2023/10/29 09:00:59;;;;;;;3.63;1.88;;;;;;;11.70;100.00;99145.88;4984739;28;20235;-45
2023/10/29 09:03:26;;;;;;;3.80;1.65;;;;;;;11.73;100.00;99138.44;4987193;28;20184;-44
2023/10/29 09:05:51;;;;;;;2.60;1.30;;;;;;;11.81;100.00;99143.28;4981303;28;20198;-46
2023/10/29 09:08:17;;;;;;;3.72;1.13;;;;;;;11.97;100.00;99140.41;4987287;28;20766;-42
2023/10/29 09:10:43;;;;;;;3.65;1.20;;;;;;;12.00;100.00;99124.06;4986620;28;20181;-43
2023/10/29 09:13:09;;;;;;;1.45;0.98;;;;;;;12.10;100.00;99126.97;4972911;28;20810;-42
2023/10/29 09:15:35;;;;;;;3.92;1.20;;;;;;;11.88;100.00;99133.00;4986105;28;20288;-41
2023/10/29 09:18:00;;;;;;;1.40;1.20;;;;;;;12.08;100.00;99129.75;4984134;28;20257;-42
2023/10/29 09:20:26;;;;;;;2.13;1.15;;;;;;;12.27;100.00;99121.22;4983609;28;20309;-44
2023/10/29 09:22:51;;;;;;;3.63;1.30;;;;;;;12.32;100.00;99115.53;4978061;28;20637;-44
2023/10/29 09:25:17;;;;;;;2.47;1.00;;;;;;;12.46;100.00;99110.00;4987549;28;20205;-44
2023/10/29 09:27:42;;;;;;;2.15;0.93;;;;;;;12.64;100.00;99121.22;4981543;28;20204;-43
2023/10/29 09:30:09;;;;;;;3.97;1.30;;;;;;;12.46;100.00;99125.25;4983667;28;20274;-44
2023/10/29 09:32:35;;;;;;;5.85;1.40;;;;;;;12.52;100.00;99124.78;4980668;28;20295;-43
2023/10/29 09:35:04;;;;;;;4.93;1.00;;;;;;;12.61;100.00;99115.19;4983279;28;20268;-42
2023/10/29 09:37:33;;;;;;;2.97;1.17;;;;;;;12.77;100.00;99119.31;4983866;28;20189;-44
2023/10/29 09:39:58;;;;;;;0.98;0.90;;;;;;;12.93;100.00;99116.34;4985201;28;20716;-43
2023/10/29 09:42:29;;;;;;;1.75;1.13;;;;;;;12.87;100.00;99113.25;4967535;28;20194;-41
2023/10/29 09:44:58;;;;;;;4.10;0.88;;;;;;;12.59;100.00;99118.00;4962981;28;20272;-43
2023/10/29 09:47:26;;;;;;;4.30;1.00;;;;;;;12.87;100.00;99092.59;4981914;28;20723;-42
2023/10/29 09:49:54;;;;;;;0.85;0.80;;;;;;;13.09;100.00;99097.19;4982995;28;20173;-44
2023/10/29 09:52:23;;;;;;;1.23;0.90;;;;;;;12.82;100.00;99102.00;4981205;28;20197;-44
2023/10/29 09:54:51;;;;;;;2.42;0.90;;;;;;;12.71;100.00;99089.38;4980670;28;20295;-43
2023/10/29 09:57:17;;;;;;;4.40;0.80;;;;;;;12.72;100.00;99086.53;4981571;28;20192;-42
2023/10/29 09:59:43;;;;;;;1.35;0.73;;;;;;;12.81;100.00;99071.56;4985930;28;20182;-42
2023/10/29 10:02:08;;;;;;;0.73;0.70;;;;;;;12.94;100.00;99067.00;4980103;28;20699;-41
2023/10/29 10:04:36;;;;;;;1.90;0.80;;;;;;;13.05;100.00;99055.38;4980790;28;20194;-43
2023/10/29 10:07:04;;;;;;;0.93;0.77;;;;;;;13.26;100.00;99052.03;4982391;28;20232;-43
2023/10/29 10:09:55;;;;;;;1.38;0.60;;;;;;;13.32;100.00;99049.75;4966998;28;20197;-43
2023/10/29 10:12:24;;;;;;;3.38;0.70;;;;;;;13.41;100.00;99047.31;4979513;28;20202;-42
2023/10/29 10:14:50;;;;;;;1.05;0.80;;;;;;;13.60;100.00;99051.13;4983299;28;20759;-42
2023/10/29 10:17:16;;;;;;;1.02;0.70;;;;;;;13.50;100.00;99047.44;4984971;28;20208;-44
2023/10/29 10:19:41;;;;;;;1.10;1.00;;;;;;;13.42;100.00;99065.16;4984514;28;20189;-43
2023/10/29 10:22:07;;;;;;;1.77;0.77;;;;;;;13.18;100.00;99058.00;4971268;28;20187;-43
2023/10/29 10:24:38;;;;;;;3.83;0.80;;;;;;;13.21;100.00;99073.91;4982878;28;20180;-43
2023/10/29 10:27:05;;;;;;;3.00;0.93;;;;;;;13.34;100.00;99057.72;4971868;28;20197;-43
2023/10/29 10:29:31;;;;;;;3.28;1.17;;;;;;;13.34;100.00;99055.88;4981143;28;20657;-42
2023/10/29 10:32:05;;;;;;;1.65;0.88;;;;;;;13.24;100.00;99064.75;4983955;28;20201;-43
2023/10/29 10:34:34;;;;;;;2.80;0.93;;;;;;;13.20;100.00;99061.41;4981182;28;20249;-42
2023/10/29 10:37:01;;;;;;;0.95;0.85;;;;;;;13.22;100.00;99072.06;4979075;28;20735;-42
2023/10/29 10:39:31;;;;;;;3.20;1.23;;;;;;;13.20;100.00;99075.72;4980569;28;20182;-44
2023/10/29 10:41:59;;;;;;;4.85;0.95;;;;;;;13.22;100.00;99069.38;4982756;28;20546;-44
2023/10/29 10:44:27;;;;;;;0.85;0.73;;;;;;;13.34;100.00;99065.78;4981888;28;20174;-41
2023/10/29 10:46:54;;;;;;;2.25;0.93;;;;;;;13.34;100.00;99057.72;4980920;28;20711;-42
2023/10/29 10:49:23;;;;;;;1.98;1.05;;;;;;;13.36;100.00;99074.59;4981725;28;20190;-42
2023/10/29 10:51:57;;;;;;;0.55;0.50;;;;;;;13.35;100.00;99084.47;4985375;28;20229;-43
2023/10/29 10:54:24;;;;;;;3.15;0.88;;;;;;;13.32;100.00;99071.28;4982392;28;20182;-42
2023/10/29 10:56:51;;;;;;;3.20;0.90;;;;;;;13.37;100.00;99079.84;4984502;28;20688;-43
2023/10/29 10:59:18;;;;;;;1.98;0.60;;;;;;;13.34;100.00;99068.47;4982233;28;20268;-42
2023/10/29 11:01:44;;;;;;;1.65;0.60;;;;;;;13.26;100.00;99078.94;4978716;28;20325;-42
2023/10/29 11:04:10;;;;;;;2.22;0.60;;;;;;;13.41;100.00;99076.91;4981093;28;20211;-43
2023/10/29 11:06:37;;;;;;;1.70;0.65;;;;;;;13.47;100.00;99084.47;4984631;28;20209;-41
2023/10/29 11:09:05;;;;;;;2.92;0.90;;;;;;;13.48;100.00;99086.22;4983122;28;20265;-42
2023/10/29 11:11:38;;;;;;;0.88;0.85;;;;;;;13.43;100.00;99086.56;4983468;28;20202;-42
2023/10/29 11:14:11;;;;;;;3.03;0.63;;;;;;;13.75;100.00;99104.69;4983186;28;20231;-42
2023/10/29 11:16:54;;;;;;;3.58;0.70;;;;;;;13.69;100.00;99095.28;4987931;28;20251;-42
2023/10/29 11:19:47;;;;;;;2.30;0.80;;;;;;;13.90;100.00;99090.03;4985705;28;20264;-43